Time;durP1;ratioP1;P1;durP2;ratioP2;P2;SDS_P1;SDS_P2;PMS_P1;PMS_P2;Temp;Humidity;BMP_temperature;BMP_pressure;BME280_temperature;BME280_humidity;BME280_pressure;Samples;Min_cycle;Max_cycle;Signal;HPM_P1;HPM_P2
2023/02/10 00:00:37;;;;;;;;;;;17.00;44.50;;;;;;10124508;28;885;-76
2023/02/10 00:05:32;;;;;;;;;;;17.00;44.50;;;;;;10123637;28;1911;-77
2023/02/10 00:10:28;;;;;;;;;;;17.00;44.50;;;;;;10124299;28;1016;-77
2023/02/10 00:15:23;;;;;;;;;;;17.00;44.60;;;;;;10124151;28;904;-77
2023/02/10 00:20:18;;;;;;;;;;;17.00;44.60;;;;;;10123985;28;859;-77
2023/02/10 00:25:14;;;;;;;;;;;17.00;44.60;;;;;;10123754;28;1914;-77
2023/02/10 00:30:09;;;;;;;;;;;17.00;44.70;;;;;;10124844;28;876;-76
2023/02/10 00:35:04;;;;;;;;;;;17.00;44.70;;;;;;10122925;28;1043;-76
2023/02/10 00:40:00;;;;;;;;;;;17.00;44.70;;;;;;10122180;28;789;-77
2023/02/10 00:44:55;;;;;;;;;;;17.00;44.70;;;;;;10123102;28;1918;-76
2023/02/10 00:49:51;;;;;;;;;;;17.00;44.70;;;;;;10123050;28;743;-77
2023/02/10 00:54:46;;;;;;;;;;;17.00;44.80;;;;;;10123475;28;814;-77
2023/02/10 00:59:41;;;;;;;;;;;17.00;44.70;;;;;;10122757;28;782;-76
2023/02/10 01:04:37;;;;;;;;;;;17.00;44.80;;;;;;10122532;28;1910;-76
2023/02/10 01:09:32;;;;;;;;;;;17.00;44.80;;;;;;10123054;28;880;-76
2023/02/10 01:14:27;;;;;;;;;;;17.00;44.70;;;;;;10122322;28;841;-77
2023/02/10 01:19:23;;;;;;;;;;;17.00;44.80;;;;;;10122176;28;757;-76
2023/02/10 01:24:18;;;;;;;;;;;17.00;44.70;;;;;;10122521;28;1911;-76
2023/02/10 01:29:13;;;;;;;;;;;17.00;44.80;;;;;;10121799;28;833;-76
2023/02/10 01:34:09;;;;;;;;;;;17.00;44.70;;;;;;10121651;28;797;-76
2023/02/10 01:39:05;;;;;;;;;;;17.00;44.70;;;;;;10121490;28;881;-76
2023/02/10 01:44:00;;;;;;;;;;;17.00;44.70;;;;;;10121523;28;1997;-77
2023/02/10 01:48:55;;;;;;;;;;;17.00;44.70;;;;;;10121249;28;857;-77
2023/02/10 01:53:51;;;;;;;;;;;17.00;44.70;;;;;;10120707;28;804;-77
2023/02/10 01:58:46;;;;;;;;;;;17.00;44.70;;;;;;10121544;28;802;-77
2023/02/10 02:03:42;;;;;;;;;;;16.90;44.70;;;;;;10120726;28;1911;-77
2023/02/10 02:08:37;;;;;;;;;;;17.00;44.80;;;;;;10121312;28;762;-77
2023/02/10 02:13:32;;;;;;;;;;;17.00;44.70;;;;;;10120528;28;801;-77
2023/02/10 02:18:28;;;;;;;;;;;17.00;44.80;;;;;;10121103;28;821;-77
2023/02/10 02:23:23;;;;;;;;;;;17.00;44.70;;;;;;10120732;28;1975;-77
2023/02/10 02:33:32;;;;;;;;;;;17.00;44.80;;;;;;10119458;28;616;-77
2023/02/10 02:38:28;;;;;;;;;;;17.00;44.70;;;;;;10120332;28;853;-77
2023/02/10 02:43:23;;;;;;;;;;;17.00;44.60;;;;;;10118932;28;1978;-77
2023/02/10 02:48:18;;;;;;;;;;;17.00;44.80;;;;;;10120077;28;825;-77
2023/02/10 02:53:14;;;;;;;;;;;17.00;44.70;;;;;;10119341;28;833;-77
2023/02/10 02:58:09;;;;;;;;;;;17.00;44.60;;;;;;10119204;28;876;-77
2023/02/10 03:03:04;;;;;;;;;;;17.00;44.80;;;;;;10118737;28;1910;-77
2023/02/10 03:08:00;;;;;;;;;;;17.00;44.80;;;;;;10119253;28;830;-76
2023/02/10 03:12:55;;;;;;;;;;;17.00;44.80;;;;;;10118535;28;862;-77
2023/02/10 03:17:50;;;;;;;;;;;16.90;44.80;;;;;;10119494;28;975;-77
2023/02/10 03:22:46;;;;;;;;;;;17.00;44.80;;;;;;10118740;28;1978;-77
2023/02/10 03:27:41;;;;;;;;;;;17.00;44.70;;;;;;10117900;28;936;-77
2023/02/10 03:32:37;;;;;;;;;;;16.90;44.70;;;;;;10118507;28;888;-77
2023/02/10 03:37:32;;;;;;;;;;;16.90;44.70;;;;;;10118799;28;774;-77
2023/02/10 03:42:27;;;;;;;;;;;16.90;44.60;;;;;;10117325;28;1283;-77
2023/02/10 03:47:23;;;;;;;;;;;17.00;44.70;;;;;;10117942;28;1978;-76
2023/02/10 03:52:18;;;;;;;;;;;16.90;44.70;;;;;;10117905;28;790;-77
2023/02/10 03:57:13;;;;;;;;;;;16.90;44.60;;;;;;10117829;28;856;-77
2023/02/10 04:02:09;;;;;;;;;;;16.90;44.70;;;;;;10118291;28;838;-76
2023/02/10 04:07:04;;;;;;;;;;;16.90;44.70;;;;;;10118073;28;1907;-77
2023/02/10 04:12:00;;;;;;;;;;;16.90;44.60;;;;;;10117378;28;869;-77
2023/02/10 04:16:55;;;;;;;;;;;16.90;44.70;;;;;;10124209;28;948;-76
2023/02/10 04:21:51;;;;;;;;;;;16.90;44.70;;;;;;10123967;28;855;-77
2023/02/10 04:26:46;;;;;;;;;;;17.00;44.70;;;;;;10123917;28;1969;-77
2023/02/10 04:31:41;;;;;;;;;;;16.90;44.70;;;;;;10123673;28;777;-77
2023/02/10 04:36:37;;;;;;;;;;;16.90;44.70;;;;;;10124051;28;786;-77
2023/02/10 04:41:32;;;;;;;;;;;17.00;44.70;;;;;;10123341;28;1309;-77
2023/02/10 04:46:28;;;;;;;;;;;16.90;44.70;;;;;;10123168;28;1910;-77
2023/02/10 04:51:23;;;;;;;;;;;16.90;44.70;;;;;;10123034;28;760;-77
2023/02/10 04:56:18;;;;;;;;;;;16.90;44.70;;;;;;10122863;28;851;-77
2023/02/10 05:01:14;;;;;;;;;;;16.90;44.70;;;;;;10123345;28;813;-77
2023/02/10 05:06:09;;;;;;;;;;;16.90;44.70;;;;;;10122541;28;1907;-77
2023/02/10 05:11:04;;;;;;;;;;;17.00;44.70;;;;;;10122457;28;902;-77
2023/02/10 05:16:02;;;;;;;;;;;16.90;44.60;;;;;;10122924;28;967;-77
2023/02/10 05:20:57;;;;;;;;;;;17.00;44.70;;;;;;10122091;28;872;-77
2023/02/10 05:25:53;;;;;;;;;;;17.00;44.60;;;;;;10121889;28;1898;-77
2023/02/10 05:30:48;;;;;;;;;;;17.00;44.60;;;;;;10122497;28;870;-77
2023/02/10 05:35:43;;;;;;;;;;;17.00;44.60;;;;;;10121714;28;864;-77
2023/02/10 05:40:39;;;;;;;;;;;17.00;44.60;;;;;;10121837;28;1305;-77
2023/02/10 05:45:34;;;;;;;;;;;17.00;44.50;;;;;;10120888;28;1965;-77
2023/02/10 05:50:30;;;;;;;;;;;17.00;44.50;;;;;;10120764;28;866;-77
2023/02/10 05:55:25;;;;;;;;;;;17.00;44.50;;;;;;10121096;28;731;-77
2023/02/10 06:00:20;;;;;;;;;;;17.00;44.50;;;;;;10121021;28;777;-77
2023/02/10 06:05:16;;;;;;;;;;;17.10;44.50;;;;;;10120746;28;1936;-77
2023/02/10 06:10:11;;;;;;;;;;;17.10;44.50;;;;;;10120502;28;927;-77
2023/02/10 06:15:06;;;;;;;;;;;17.10;44.50;;;;;;10121150;28;858;-76
2023/02/10 06:20:02;;;;;;;;;;;17.00;44.50;;;;;;10120941;28;813;-77
2023/02/10 06:24:57;;;;;;;;;;;17.00;44.50;;;;;;10120697;28;1894;-80
2023/02/10 06:29:53;;;;;;;;;;;17.00;44.60;;;;;;10120089;28;872;-78
2023/02/10 06:34:48;;;;;;;;;;;16.90;44.60;;;;;;10120181;28;861;-79
2023/02/10 06:39:43;;;;;;;;;;;16.90;44.60;;;;;;10118064;28;932;-78
2023/02/10 06:44:39;;;;;;;;;;;16.90;44.70;;;;;;10120219;28;1989;-78
2023/02/10 06:49:35;;;;;;;;;;;16.90;44.60;;;;;;10119497;28;786;-79
2023/02/10 06:54:30;;;;;;;;;;;16.90;44.50;;;;;;10119900;28;791;-78
2023/02/10 06:59:25;;;;;;;;;;;16.90;44.50;;;;;;10119788;28;944;-79
2023/02/10 07:04:21;;;;;;;;;;;16.90;44.50;;;;;;10119122;28;1898;-84
2023/02/10 07:09:16;;;;;;;;;;;17.00;44.50;;;;;;10118989;28;888;-74
2023/02/10 07:14:11;;;;;;;;;;;17.00;44.50;;;;;;10118864;28;861;-78
2023/02/10 07:19:07;;;;;;;;;;;17.00;44.50;;;;;;10119311;28;870;-80
2023/02/10 07:24:02;;;;;;;;;;;17.00;44.50;;;;;;10134577;28;1906;-78
2023/02/10 07:28:57;;;;;;;;;;;17.00;44.50;;;;;;10118720;28;890;-78
2023/02/10 07:33:53;;;;;;;;;;;17.00;44.50;;;;;;10118180;28;931;-79
2023/02/10 07:38:48;;;;;;;;;;;17.00;44.40;;;;;;10118274;28;912;-78
2023/02/10 07:43:44;;;;;;;;;;;17.00;44.50;;;;;;10115736;28;1906;-78
2023/02/10 07:48:39;;;;;;;;;;;17.00;44.50;;;;;;10119214;28;821;-78
2023/02/10 07:53:37;;;;;;;;;;;17.00;44.40;;;;;;10124229;28;1291;-77
2023/02/10 07:58:32;;;;;;;;;;;17.00;44.40;;;;;;10124792;28;848;-78
2023/02/10 08:03:28;;;;;;;;;;;17.10;44.40;;;;;;10124786;28;1990;-77
2023/02/10 08:08:23;;;;;;;;;;;17.00;44.40;;;;;;10124181;28;890;-78
2023/02/10 08:13:18;;;;;;;;;;;17.00;44.40;;;;;;10123684;28;917;-79
2023/02/10 08:18:14;;;;;;;;;;;17.00;44.40;;;;;;10123542;28;951;-77
2023/02/10 08:23:09;;;;;;;;;;;17.00;44.30;;;;;;10122842;28;2024;-78
2023/02/10 08:28:04;;;;;;;;;;;17.00;44.30;;;;;;10124643;28;1248;-78
2023/02/10 08:33:00;;;;;;;;;;;17.00;44.30;;;;;;10123896;28;880;-76
2023/02/10 08:37:55;;;;;;;;;;;17.10;45.00;;;;;;10124051;28;806;-77
2023/02/10 08:42:51;;;;;;;;;;;17.00;44.30;;;;;;10121137;28;1287;-77
2023/02/10 08:47:47;;;;;;;;;;;17.00;44.90;;;;;;10124043;28;1931;-77
2023/02/10 08:52:42;;;;;;;;;;;17.10;44.40;;;;;;10122423;28;912;-77
2023/02/10 08:57:38;;;;;;;;;;;17.00;44.40;;;;;;10123765;28;944;-77
2023/02/10 09:02:33;;;;;;;;;;;17.00;44.50;;;;;;10121440;28;960;-77
2023/02/10 09:07:28;;;;;;;;;;;16.90;44.60;;;;;;10122566;28;1969;-77
2023/02/10 09:12:24;;;;;;;;;;;16.90;44.50;;;;;;10122067;28;952;-77
2023/02/10 09:17:19;;;;;;;;;;;16.90;44.40;;;;;;10122413;28;806;-77
2023/02/10 09:22:16;;;;;;;;;;;16.90;44.60;;;;;;10122258;28;884;-76
2023/02/10 09:27:11;;;;;;;;;;;16.90;44.50;;;;;;10121944;28;1964;-76
2023/02/10 09:32:06;;;;;;;;;;;16.90;44.40;;;;;;10122262;28;853;-76
2023/02/10 09:37:02;;;;;;;;;;;16.90;44.40;;;;;;10121649;28;964;-76
2023/02/10 09:41:57;;;;;;;;;;;16.90;44.40;;;;;;10121778;28;1478;-77
2023/02/10 09:46:54;;;;;;;;;;;16.90;44.40;;;;;;10121351;28;1911;-77
2023/02/10 09:51:50;;;;;;;;;;;17.00;44.40;;;;;;10121772;28;837;-76
2023/02/10 09:56:45;;;;;;;;;;;16.90;44.40;;;;;;10121383;28;842;-74
2023/02/10 10:01:41;;;;;;;;;;;17.20;44.70;;;;;;10121109;28;893;-73
2023/02/10 10:06:36;;;;;;;;;;;17.40;45.50;;;;;;10120714;28;1895;-74
2023/02/10 10:11:31;;;;;;;;;;;17.50;45.50;;;;;;10120923;28;890;-74
2023/02/10 10:16:27;;;;;;;;;;;17.50;45.60;;;;;;10119648;28;862;-75
2023/02/10 10:21:22;;;;;;;;;;;17.50;45.50;;;;;;10120062;28;758;-74
2023/02/10 10:26:17;;;;;;;;;;;17.50;45.30;;;;;;10120086;28;1899;-74
2023/02/10 10:31:13;;;;;;;;;;;17.40;45.20;;;;;;10120070;28;834;-74
2023/02/10 10:36:08;;;;;;;;;;;17.40;45.40;;;;;;10120574;28;836;-74
2023/02/10 10:41:04;;;;;;;;;;;17.40;45.30;;;;;;10119410;28;1295;-74
2023/02/10 10:45:59;;;;;;;;;;;17.40;45.00;;;;;;10119635;28;1910;-74
2023/02/10 10:50:54;;;;;;;;;;;17.40;45.00;;;;;;10119457;28;980;-74
2023/02/10 10:55:50;;;;;;;;;;;17.40;45.20;;;;;;10119337;28;965;-74
2023/02/10 11:00:45;;;;;;;;;;;17.50;44.90;;;;;;10119230;28;873;-74
2023/02/10 11:05:41;;;;;;;;;;;17.50;45.10;;;;;;10119027;28;2025;-74
2023/02/10 11:10:36;;;;;;;;;;;17.50;44.70;;;;;;10119019;28;783;-74
2023/02/10 11:15:31;;;;;;;;;;;17.50;44.70;;;;;;10118983;28;852;-74
2023/02/10 11:20:27;;;;;;;;;;;17.50;44.70;;;;;;10118778;28;790;-74
2023/02/10 11:25:22;;;;;;;;;;;17.50;44.80;;;;;;10122210;28;1903;-69
2023/02/10 11:30:17;;;;;;;;;;;17.50;44.70;;;;;;10125529;28;892;-78
2023/02/10 11:35:13;;;;;;;;;;;17.40;44.70;;;;;;10125379;28;889;-79
2023/02/10 11:40:08;;;;;;;;;;;17.30;44.70;;;;;;10126249;28;885;-78
2023/02/10 11:45:03;;;;;;;;;;;17.10;45.10;;;;;;10125346;28;2024;-79
2023/02/10 11:49:59;;;;;;;;;;;17.10;45.00;;;;;;10125286;28;928;-74
2023/02/10 11:54:54;;;;;;;;;;;17.20;44.90;;;;;;10124468;28;902;-75
2023/02/10 11:59:50;;;;;;;;;;;17.40;44.50;;;;;;10124464;28;873;-74
2023/02/10 12:04:45;;;;;;;;;;;17.50;44.80;;;;;;10124175;28;1976;-74
2023/02/10 12:09:40;;;;;;;;;;;17.50;44.60;;;;;;10124842;28;849;-74
2023/02/10 12:14:36;;;;;;;;;;;17.50;44.40;;;;;;10123300;28;942;-74
2023/02/10 12:19:31;;;;;;;;;;;17.50;44.80;;;;;;10123214;28;917;-74
2023/02/10 12:24:26;;;;;;;;;;;17.60;44.50;;;;;;10123055;28;1969;-74
2023/02/10 12:29:22;;;;;;;;;;;17.60;44.70;;;;;;10123652;28;849;-73
2023/02/10 12:34:17;;;;;;;;;;;17.70;44.30;;;;;;10123575;28;850;-73
2023/02/10 12:39:16;;;;;;;;;;;17.60;44.70;;;;;;10124080;28;1012;-74
2023/02/10 12:44:11;;;;;;;;;;;17.70;44.70;;;;;;10123131;28;1984;-74
2023/02/10 12:49:06;;;;;;;;;;;17.70;44.50;;;;;;10123811;28;882;-73
2023/02/10 12:54:02;;;;;;;;;;;17.70;45.00;;;;;;10123629;28;1004;-74
2023/02/10 12:58:57;;;;;;;;;;;17.70;44.30;;;;;;10120795;28;1146;-74
2023/02/10 13:03:53;;;;;;;;;;;17.70;44.10;;;;;;10123200;28;1906;-74
2023/02/10 13:08:48;;;;;;;;;;;17.80;44.10;;;;;;10122627;28;870;-74
2023/02/10 13:13:43;;;;;;;;;;;17.70;44.60;;;;;;10122623;28;889;-74
2023/02/10 13:18:39;;;;;;;;;;;17.70;44.30;;;;;;10122402;28;931;-74
2023/02/10 13:23:34;;;;;;;;;;;17.80;44.50;;;;;;10121910;28;1994;-74
2023/02/10 13:28:30;;;;;;;;;;;17.90;44.40;;;;;;10122086;28;1126;-74
2023/02/10 13:33:25;;;;;;;;;;;17.90;44.30;;;;;;10122463;28;825;-73
2023/02/10 13:38:21;;;;;;;;;;;17.90;44.30;;;;;;10121724;28;758;-74
2023/02/10 13:43:17;;;;;;;;;;;18.00;44.40;;;;;;10120917;28;1997;-74
2023/02/10 13:48:12;;;;;;;;;;;18.00;44.20;;;;;;10120824;28;868;-74
2023/02/10 13:53:07;;;;;;;;;;;18.00;44.30;;;;;;10120679;28;964;-76
2023/02/10 13:58:03;;;;;;;;;;;18.10;44.20;;;;;;10120694;28;1184;-74
2023/02/10 14:02:58;;;;;;;;;;;18.10;44.30;;;;;;10120703;28;825;-74
2023/02/10 14:07:55;;;;;;;;;;;18.10;44.40;;;;;;10120648;28;1964;-74
2023/02/10 14:12:50;;;;;;;;;;;18.10;44.50;;;;;;10119859;28;1141;-74
2023/02/10 14:17:45;;;;;;;;;;;18.10;44.50;;;;;;10120852;28;876;-76
2023/02/10 14:22:41;;;;;;;;;;;18.10;44.40;;;;;;10119316;28;1118;-75
2023/02/10 14:27:36;;;;;;;;;;;18.10;44.40;;;;;;10119445;28;1902;-75
2023/02/10 14:32:33;;;;;;;;;;;18.10;44.30;;;;;;10134726;28;765;-75
2023/02/10 14:37:28;;;;;;;;;;;18.10;44.30;;;;;;10119507;28;988;-75
2023/02/10 14:42:23;;;;;;;;;;;18.10;44.30;;;;;;10119628;28;1385;-75
2023/02/10 14:47:19;;;;;;;;;;;18.10;44.40;;;;;;10119588;28;1974;-76
2023/02/10 14:52:14;;;;;;;;;;;18.10;44.30;;;;;;10118957;28;1169;-75
2023/02/10 14:57:09;;;;;;;;;;;18.10;44.30;;;;;;10118589;28;1098;-75
2023/02/10 15:02:05;;;;;;;;;;;18.00;44.00;;;;;;10118751;28;958;-76
2023/02/10 15:07:00;;;;;;;;;;;18.00;44.30;;;;;;10118345;28;1961;-75
2023/02/10 15:12:11;;;;;;;;;;;17.90;44.20;;;;;;10118636;28;914;-74
2023/02/10 15:17:06;;;;;;;;;;;17.90;44.20;;;;;;10119381;28;865;-75
2023/02/10 15:22:04;;;;;;;;;;;17.90;44.40;;;;;;10118468;28;961;-74
2023/02/10 15:26:59;;;;;;;;;;;17.90;44.50;;;;;;10116574;28;1895;-75
2023/02/10 15:31:54;;;;;;;;;;;17.90;44.40;;;;;;10118211;28;975;-75
2023/02/10 15:36:50;;;;;;;;;;;17.90;44.40;;;;;;10118045;28;762;-75
2023/02/10 15:41:45;;;;;;;;;;;17.90;44.40;;;;;;10117852;28;1426;-75
2023/02/10 15:46:40;;;;;;;;;;;17.90;44.70;;;;;;10117602;28;1902;-75
2023/02/10 15:51:36;;;;;;;;;;;17.90;44.40;;;;;;10117736;28;870;-75
2023/02/10 15:56:31;;;;;;;;;;;17.90;44.70;;;;;;10118177;28;920;-75
2023/02/10 16:01:27;;;;;;;;;;;17.90;44.60;;;;;;10116830;28;1168;-75
2023/02/10 16:06:22;;;;;;;;;;;17.90;44.80;;;;;;10117305;28;1965;-75
2023/02/10 16:11:17;;;;;;;;;;;17.80;44.50;;;;;;10120244;28;1051;-73
2023/02/10 16:16:13;;;;;;;;;;;17.90;44.60;;;;;;10124625;28;866;-75
2023/02/10 16:21:08;;;;;;;;;;;17.90;44.90;;;;;;10123953;28;790;-73
2023/02/10 16:26:04;;;;;;;;;;;17.80;44.90;;;;;;10124206;28;1899;-75
2023/02/10 16:30:59;;;;;;;;;;;17.80;45.10;;;;;;10124400;28;853;-74
2023/02/10 16:35:54;;;;;;;;;;;17.80;45.00;;;;;;10124223;28;821;-75
2023/02/10 16:40:51;;;;;;;;;;;17.80;44.80;;;;;;10123909;28;1349;-75
2023/02/10 16:45:46;;;;;;;;;;;17.80;44.90;;;;;;10123476;28;1911;-74
2023/02/10 16:50:41;;;;;;;;;;;17.80;44.80;;;;;;10124426;28;833;-75
2023/02/10 16:55:37;;;;;;;;;;;17.80;44.90;;;;;;10123105;28;806;-74
2023/02/10 17:00:32;;;;;;;;;;;17.80;44.80;;;;;;10123608;28;830;-74
2023/02/10 17:05:29;;;;;;;;;;;17.70;44.80;;;;;;10123467;28;1966;-75
2023/02/10 17:10:24;;;;;;;;;;;17.70;44.90;;;;;;10122593;28;985;-74
2023/02/10 17:15:20;;;;;;;;;;;17.80;44.80;;;;;;10122512;28;948;-68
2023/02/10 17:20:15;;;;;;;;;;;17.80;44.70;;;;;;10122153;28;880;-68
2023/02/10 17:25:10;;;;;;;;;;;17.70;44.60;;;;;;10121475;28;1906;-68
2023/02/10 17:30:07;;;;;;;;;;;17.70;44.60;;;;;;10122621;28;931;-67
2023/02/10 17:35:02;;;;;;;;;;;17.60;44.40;;;;;;10121812;28;917;-75
2023/02/10 17:40:43;;;;;;;;;;;17.60;44.70;;;;;;10121779;28;762;-75
2023/02/10 17:45:13;;;;;;;;;;;17.70;44.60;;;;;;10138386;28;1976;-74
2023/02/10 17:50:08;;;;;;;;;;;17.70;44.40;;;;;;10121464;28;896;-74
2023/02/10 17:55:04;;;;;;;;;;;17.70;44.40;;;;;;10121846;28;883;-74
2023/02/10 17:59:59;;;;;;;;;;;17.70;44.40;;;;;;10121102;28;862;-75
2023/02/10 18:04:54;;;;;;;;;;;17.70;44.40;;;;;;10121846;28;1969;-74
2023/02/10 18:09:50;;;;;;;;;;;17.70;44.40;;;;;;10120705;28;1000;-75
2023/02/10 18:14:47;;;;;;;;;;;17.70;44.30;;;;;;10121800;28;889;-74
2023/02/10 18:19:42;;;;;;;;;;;17.70;44.20;;;;;;10120525;28;841;-74
2023/02/10 18:24:37;;;;;;;;;;;17.70;44.10;;;;;;10121296;28;1957;-74
2023/02/10 18:29:33;;;;;;;;;;;17.70;44.10;;;;;;10120995;28;858;-74
2023/02/10 18:34:28;;;;;;;;;;;17.70;44.10;;;;;;10119870;28;973;-74
2023/02/10 18:39:24;;;;;;;;;;;17.70;44.20;;;;;;10120679;28;794;-74
2023/02/10 18:44:19;;;;;;;;;;;17.70;44.00;;;;;;10120557;28;1915;-75
2023/02/10 18:49:14;;;;;;;;;;;17.70;44.10;;;;;;10119660;28;829;-74
2023/02/10 18:54:10;;;;;;;;;;;17.70;44.00;;;;;;10119560;28;777;-75
2023/02/10 18:59:05;;;;;;;;;;;17.70;44.00;;;;;;10118817;28;884;-74
2023/02/10 19:04:02;;;;;;;;;;;17.70;43.90;;;;;;10119209;28;1966;-74
2023/02/10 19:08:57;;;;;;;;;;;17.70;43.90;;;;;;10119678;28;860;-74
2023/02/10 19:13:53;;;;;;;;;;;17.70;43.80;;;;;;10119004;28;841;-74
2023/02/10 19:18:48;;;;;;;;;;;17.70;44.40;;;;;;10119464;28;837;-74
2023/02/10 19:23:43;;;;;;;;;;;17.70;43.70;;;;;;10118806;28;1957;-74
2023/02/10 19:28:41;;;;;;;;;;;17.70;43.70;;;;;;10118634;28;775;-74
2023/02/10 19:33:36;;;;;;;;;;;17.70;43.90;;;;;;10118984;28;894;-74
2023/02/10 19:38:32;;;;;;;;;;;17.70;43.90;;;;;;10118584;28;760;-73
2023/02/10 19:43:27;;;;;;;;;;;17.80;44.00;;;;;;10118249;28;1970;-76
2023/02/10 19:48:23;;;;;;;;;;;17.80;43.80;;;;;;10125341;28;983;-76
2023/02/10 19:53:18;;;;;;;;;;;17.60;44.00;;;;;;10125013;28;862;-74
2023/02/10 19:58:14;;;;;;;;;;;17.50;44.00;;;;;;10124879;28;802;-74
2023/02/10 20:03:10;;;;;;;;;;;17.40;44.30;;;;;;10124674;28;935;-74
2023/02/10 20:08:05;;;;;;;;;;;17.40;44.30;;;;;;10124724;28;1886;-74
2023/02/10 20:13:01;;;;;;;;;;;17.40;44.50;;;;;;10124441;28;767;-74
2023/02/10 20:17:56;;;;;;;;;;;17.30;44.40;;;;;;10124221;28;849;-74
2023/02/10 20:22:51;;;;;;;;;;;17.30;44.60;;;;;;10124394;28;766;-74
2023/02/10 20:27:47;;;;;;;;;;;17.30;44.30;;;;;;10123353;28;1907;-74
2023/02/10 20:32:42;;;;;;;;;;;17.40;44.50;;;;;;10123800;28;877;-74
2023/02/10 20:37:37;;;;;;;;;;;17.30;45.10;;;;;;10124380;28;905;-74
2023/02/10 20:42:33;;;;;;;;;;;17.30;44.40;;;;;;10123645;28;1144;-74
2023/02/10 20:47:28;;;;;;;;;;;17.30;44.40;;;;;;10123583;28;1972;-74
2023/02/10 20:52:23;;;;;;;;;;;17.30;44.30;;;;;;10122698;28;869;-74
2023/02/10 20:57:19;;;;;;;;;;;17.30;44.40;;;;;;10122542;28;874;-74
2023/02/10 21:02:14;;;;;;;;;;;17.30;44.40;;;;;;10122941;28;862;-74
2023/02/10 21:07:10;;;;;;;;;;;17.30;44.30;;;;;;10122717;28;2023;-74
2023/02/10 21:12:05;;;;;;;;;;;17.30;44.40;;;;;;10122269;28;1000;-74
2023/02/10 21:17:00;;;;;;;;;;;17.30;44.30;;;;;;10121951;28;948;-74
2023/02/10 21:21:56;;;;;;;;;;;17.30;44.10;;;;;;10121796;28;833;-74
2023/02/10 21:26:51;;;;;;;;;;;17.30;44.30;;;;;;10122142;28;1927;-74
2023/02/10 21:31:46;;;;;;;;;;;17.30;44.20;;;;;;10121972;28;882;-74
2023/02/10 21:36:42;;;;;;;;;;;17.30;44.10;;;;;;10122210;28;849;-75
2023/02/10 21:41:37;;;;;;;;;;;17.30;44.20;;;;;;10121315;28;1410;-74
2023/02/10 21:46:33;;;;;;;;;;;17.30;43.90;;;;;;10121492;28;1918;-74
2023/02/10 21:51:28;;;;;;;;;;;17.20;44.10;;;;;;10122224;28;973;-74
2023/02/10 21:56:23;;;;;;;;;;;17.20;44.30;;;;;;10121293;28;786;-74
2023/02/10 22:01:19;;;;;;;;;;;17.30;44.20;;;;;;10120516;28;858;-74
2023/02/10 22:06:14;;;;;;;;;;;17.30;44.30;;;;;;10120893;28;1906;-74
2023/02/10 22:11:09;;;;;;;;;;;17.30;44.30;;;;;;10120958;28;862;-74
2023/02/10 22:16:05;;;;;;;;;;;17.20;44.30;;;;;;10120661;28;825;-74
2023/02/10 22:21:00;;;;;;;;;;;17.20;44.40;;;;;;10120536;28;802;-74
2023/02/10 22:25:56;;;;;;;;;;;17.30;44.40;;;;;;10120325;28;1914;-74
2023/02/10 22:30:51;;;;;;;;;;;17.30;44.40;;;;;;10120235;28;928;-74
2023/02/10 22:35:46;;;;;;;;;;;17.30;44.30;;;;;;10120086;28;876;-74
2023/02/10 22:40:42;;;;;;;;;;;17.20;44.40;;;;;;10119814;28;1382;-74
2023/02/10 22:45:37;;;;;;;;;;;17.20;44.50;;;;;;10120298;28;1973;-74
2023/02/10 22:50:32;;;;;;;;;;;17.20;44.50;;;;;;10120259;28;837;-74
2023/02/10 22:55:28;;;;;;;;;;;17.20;44.40;;;;;;10119503;28;978;-74
2023/02/10 23:00:24;;;;;;;;;;;17.20;44.40;;;;;;10119385;28;1138;-74
2023/02/10 23:05:21;;;;;;;;;;;17.20;44.40;;;;;;10119091;28;1981;-74
2023/02/10 23:10:16;;;;;;;;;;;17.20;44.40;;;;;;10119118;28;921;-74
2023/02/10 23:15:11;;;;;;;;;;;17.20;44.40;;;;;;10119572;28;865;-74
2023/02/10 23:20:07;;;;;;;;;;;17.20;44.60;;;;;;10117948;28;936;-74
2023/02/10 23:25:02;;;;;;;;;;;17.20;44.40;;;;;;10118676;28;1973;-74
2023/02/10 23:29:58;;;;;;;;;;;17.20;44.40;;;;;;10118582;28;873;-75
2023/02/10 23:34:53;;;;;;;;;;;17.20;44.50;;;;;;10117965;28;858;-74
2023/02/10 23:39:48;;;;;;;;;;;17.20;44.40;;;;;;10118401;28;843;-74
2023/02/10 23:44:44;;;;;;;;;;;17.20;44.40;;;;;;10118890;28;1914;-74
2023/02/10 23:49:39;;;;;;;;;;;17.20;44.40;;;;;;10118282;28;810;-74
2023/02/10 23:54:34;;;;;;;;;;;17.20;44.40;;;;;;10118073;28;834;-74
2023/02/10 23:59:30;;;;;;;;;;;17.20;44.40;;;;;;10117918;28;772;-74
